<?xml version="1.0" encoding="UTF-8" standalone="no" ?>
<gpx xmlns="http://www.topografix.com/GPX/1/1" xmlns:xsi="http://www.w3.org/2001/XMLSchema-instance" xsi:schemaLocation="http://www.topografix.com/GPX/1/1 http://www.topografix.com/GPX/1/1/gpx.xsd" version="1.1" creator="VisuGPX - https://www.visugpx.com">
  <metadata>
    <name>Combe des Reisses-Combe du Merlet</name>
    <desc><![CDATA[randonnée à ski du 26 02 2009 ; belle boucle mais le bas des Reisses est austere...]]></desc>
  </metadata>
  <trk>
    <name><![CDATA[ACTIVE LOG]]></name>
    <trkseg>
      <trkpt lat="45.31518" lon="6.25647">
        <ele>958.0913086</ele>
        <time>2009-02-26T06:36:06Z</time>
      </trkpt>
      <trkpt lat="45.31518" lon="6.25647">
        <ele>1014.328125</ele>
        <time>2009-02-26T06:37:06Z</time>
      </trkpt>
      <trkpt lat="45.31515" lon="6.25658">
        <ele>1015.2895508</ele>
        <time>2009-02-26T06:38:06Z</time>
      </trkpt>
      <trkpt lat="45.31545" lon="6.25729">
        <ele>1020.0961914</ele>
        <time>2009-02-26T06:39:06Z</time>
      </trkpt>
      <trkpt lat="45.31603" lon="6.25783">
        <ele>1023.4609375</ele>
        <time>2009-02-26T06:40:06Z</time>
      </trkpt>
      <trkpt lat="45.3166" lon="6.25822">
        <ele>1027.7866211</ele>
        <time>2009-02-26T06:41:06Z</time>
      </trkpt>
      <trkpt lat="45.31716" lon="6.25857">
        <ele>1032.5932617</ele>
        <time>2009-02-26T06:42:06Z</time>
      </trkpt>
      <trkpt lat="45.3177" lon="6.25892">
        <ele>1034.5158691</ele>
        <time>2009-02-26T06:43:06Z</time>
      </trkpt>
      <trkpt lat="45.31822" lon="6.25929">
        <ele>1040.2839355</ele>
        <time>2009-02-26T06:44:06Z</time>
      </trkpt>
      <trkpt lat="45.3187" lon="6.25962">
        <ele>1047.0129395</ele>
        <time>2009-02-26T06:45:06Z</time>
      </trkpt>
      <trkpt lat="45.31915" lon="6.26007">
        <ele>1052.300293</ele>
        <time>2009-02-26T06:46:06Z</time>
      </trkpt>
      <trkpt lat="45.31969" lon="6.26044">
        <ele>1055.6650391</ele>
        <time>2009-02-26T06:47:06Z</time>
      </trkpt>
      <trkpt lat="45.32029" lon="6.2608">
        <ele>1059.5102539</ele>
        <time>2009-02-26T06:48:06Z</time>
      </trkpt>
      <trkpt lat="45.32092" lon="6.26104">
        <ele>1066.2392578</ele>
        <time>2009-02-26T06:49:06Z</time>
      </trkpt>
      <trkpt lat="45.32135" lon="6.26026">
        <ele>1063.8359375</ele>
        <time>2009-02-26T06:50:06Z</time>
      </trkpt>
      <trkpt lat="45.32176" lon="6.25974">
        <ele>1059.9907227</ele>
        <time>2009-02-26T06:51:06Z</time>
      </trkpt>
      <trkpt lat="45.32245" lon="6.25974">
        <ele>1052.300293</ele>
        <time>2009-02-26T06:52:06Z</time>
      </trkpt>
      <trkpt lat="45.32253" lon="6.2596">
        <ele>1051.3388672</ele>
        <time>2009-02-26T06:53:06Z</time>
      </trkpt>
      <trkpt lat="45.32252" lon="6.2595">
        <ele>1049.8969727</ele>
        <time>2009-02-26T06:54:06Z</time>
      </trkpt>
      <trkpt lat="45.32256" lon="6.25953">
        <ele>1049.8969727</ele>
        <time>2009-02-26T06:55:06Z</time>
      </trkpt>
      <trkpt lat="45.32263" lon="6.25925">
        <ele>1051.3388672</ele>
        <time>2009-02-26T06:56:06Z</time>
      </trkpt>
      <trkpt lat="45.32266" lon="6.25872">
        <ele>1057.1069336</ele>
        <time>2009-02-26T06:57:06Z</time>
      </trkpt>
      <trkpt lat="45.32291" lon="6.25798">
        <ele>1058.5488281</ele>
        <time>2009-02-26T06:58:06Z</time>
      </trkpt>
      <trkpt lat="45.32339" lon="6.25753">
        <ele>1061.4328613</ele>
        <time>2009-02-26T06:59:06Z</time>
      </trkpt>
      <trkpt lat="45.32362" lon="6.25705">
        <ele>1067.2006836</ele>
        <time>2009-02-26T07:00:06Z</time>
      </trkpt>
      <trkpt lat="45.32404" lon="6.25646">
        <ele>1072.4880371</ele>
        <time>2009-02-26T07:01:06Z</time>
      </trkpt>
      <trkpt lat="45.32439" lon="6.25579">
        <ele>1073.4494629</ele>
        <time>2009-02-26T07:02:06Z</time>
      </trkpt>
      <trkpt lat="45.32486" lon="6.25543">
        <ele>1077.7751465</ele>
        <time>2009-02-26T07:03:06Z</time>
      </trkpt>
      <trkpt lat="45.32516" lon="6.25529">
        <ele>1084.9853516</ele>
        <time>2009-02-26T07:04:06Z</time>
      </trkpt>
      <trkpt lat="45.32538" lon="6.25474">
        <ele>1092.1950684</ele>
        <time>2009-02-26T07:05:06Z</time>
      </trkpt>
      <trkpt lat="45.32557" lon="6.25422">
        <ele>1099.885498</ele>
        <time>2009-02-26T07:06:06Z</time>
      </trkpt>
      <trkpt lat="45.32597" lon="6.25387">
        <ele>1108.5373535</ele>
        <time>2009-02-26T07:07:06Z</time>
      </trkpt>
      <trkpt lat="45.32639" lon="6.25346">
        <ele>1117.1894531</ele>
        <time>2009-02-26T07:08:06Z</time>
      </trkpt>
      <trkpt lat="45.32687" lon="6.25323">
        <ele>1123.4379883</ele>
        <time>2009-02-26T07:09:06Z</time>
      </trkpt>
      <trkpt lat="45.32718" lon="6.2527">
        <ele>1129.2055664</ele>
        <time>2009-02-26T07:10:06Z</time>
      </trkpt>
      <trkpt lat="45.32752" lon="6.25194">
        <ele>1133.5317383</ele>
        <time>2009-02-26T07:11:06Z</time>
      </trkpt>
      <trkpt lat="45.32802" lon="6.25126">
        <ele>1134.973877</ele>
        <time>2009-02-26T07:12:06Z</time>
      </trkpt>
      <trkpt lat="45.3285" lon="6.25174">
        <ele>1137.857666</ele>
        <time>2009-02-26T07:13:06Z</time>
      </trkpt>
      <trkpt lat="45.32848" lon="6.25244">
        <ele>1143.6254883</ele>
        <time>2009-02-26T07:14:06Z</time>
      </trkpt>
      <trkpt lat="45.32852" lon="6.25297">
        <ele>1148.4321289</ele>
        <time>2009-02-26T07:15:06Z</time>
      </trkpt>
      <trkpt lat="45.32874" lon="6.25244">
        <ele>1158.0454102</ele>
        <time>2009-02-26T07:16:06Z</time>
      </trkpt>
      <trkpt lat="45.32903" lon="6.25197">
        <ele>1168.619873</ele>
        <time>2009-02-26T07:17:06Z</time>
      </trkpt>
      <trkpt lat="45.32945" lon="6.25167">
        <ele>1176.7910156</ele>
        <time>2009-02-26T07:18:06Z</time>
      </trkpt>
      <trkpt lat="45.32968" lon="6.25104">
        <ele>1185.4428711</ele>
        <time>2009-02-26T07:19:06Z</time>
      </trkpt>
      <trkpt lat="45.32994" lon="6.25068">
        <ele>1196.9787598</ele>
        <time>2009-02-26T07:20:06Z</time>
      </trkpt>
      <trkpt lat="45.33019" lon="6.25035">
        <ele>1206.5917969</ele>
        <time>2009-02-26T07:21:06Z</time>
      </trkpt>
      <trkpt lat="45.33041" lon="6.24993">
        <ele>1216.2050781</ele>
        <time>2009-02-26T07:22:06Z</time>
      </trkpt>
      <trkpt lat="45.33049" lon="6.24942">
        <ele>1226.779541</ele>
        <time>2009-02-26T07:23:06Z</time>
      </trkpt>
      <trkpt lat="45.33056" lon="6.24892">
        <ele>1237.3540039</ele>
        <time>2009-02-26T07:24:06Z</time>
      </trkpt>
      <trkpt lat="45.33064" lon="6.24873">
        <ele>1241.1992188</ele>
        <time>2009-02-26T07:25:06Z</time>
      </trkpt>
      <trkpt lat="45.33078" lon="6.24863">
        <ele>1244.5639648</ele>
        <time>2009-02-26T07:26:06Z</time>
      </trkpt>
      <trkpt lat="45.33115" lon="6.24838">
        <ele>1253.6965332</ele>
        <time>2009-02-26T07:27:06Z</time>
      </trkpt>
      <trkpt lat="45.33123" lon="6.24809">
        <ele>1257.0610352</ele>
        <time>2009-02-26T07:28:06Z</time>
      </trkpt>
      <trkpt lat="45.3313" lon="6.24763">
        <ele>1267.635498</ele>
        <time>2009-02-26T07:29:06Z</time>
      </trkpt>
      <trkpt lat="45.33146" lon="6.24717">
        <ele>1280.6135254</ele>
        <time>2009-02-26T07:30:06Z</time>
      </trkpt>
      <trkpt lat="45.33167" lon="6.24661">
        <ele>1288.784668</ele>
        <time>2009-02-26T07:31:06Z</time>
      </trkpt>
      <trkpt lat="45.33205" lon="6.24704">
        <ele>1297.9172363</ele>
        <time>2009-02-26T07:32:06Z</time>
      </trkpt>
      <trkpt lat="45.33222" lon="6.24701">
        <ele>1308.4916992</ele>
        <time>2009-02-26T07:33:06Z</time>
      </trkpt>
      <trkpt lat="45.33245" lon="6.24656">
        <ele>1317.6240234</ele>
        <time>2009-02-26T07:34:06Z</time>
      </trkpt>
      <trkpt lat="45.33271" lon="6.24623">
        <ele>1325.7954102</ele>
        <time>2009-02-26T07:35:06Z</time>
      </trkpt>
      <trkpt lat="45.33289" lon="6.24573">
        <ele>1337.3310547</ele>
        <time>2009-02-26T07:36:06Z</time>
      </trkpt>
      <trkpt lat="45.33306" lon="6.24527">
        <ele>1349.8283691</ele>
        <time>2009-02-26T07:37:06Z</time>
      </trkpt>
      <trkpt lat="45.33331" lon="6.24484">
        <ele>1357.0383301</ele>
        <time>2009-02-26T07:38:06Z</time>
      </trkpt>
      <trkpt lat="45.33339" lon="6.24427">
        <ele>1362.8061523</ele>
        <time>2009-02-26T07:39:06Z</time>
      </trkpt>
      <trkpt lat="45.33356" lon="6.24403">
        <ele>1375.3032227</ele>
        <time>2009-02-26T07:40:06Z</time>
      </trkpt>
      <trkpt lat="45.3337" lon="6.24371">
        <ele>1381.5517578</ele>
        <time>2009-02-26T07:41:06Z</time>
      </trkpt>
      <trkpt lat="45.33388" lon="6.24343">
        <ele>1389.7231445</ele>
        <time>2009-02-26T07:42:06Z</time>
      </trkpt>
      <trkpt lat="45.33413" lon="6.2433">
        <ele>1398.8554688</ele>
        <time>2009-02-26T07:43:06Z</time>
      </trkpt>
      <trkpt lat="45.33424" lon="6.2429">
        <ele>1409.4301758</ele>
        <time>2009-02-26T07:44:06Z</time>
      </trkpt>
      <trkpt lat="45.33435" lon="6.24246">
        <ele>1417.1206055</ele>
        <time>2009-02-26T07:45:06Z</time>
      </trkpt>
      <trkpt lat="45.33449" lon="6.24207">
        <ele>1426.7338867</ele>
        <time>2009-02-26T07:46:06Z</time>
      </trkpt>
      <trkpt lat="45.33466" lon="6.24185">
        <ele>1436.347168</ele>
        <time>2009-02-26T07:47:06Z</time>
      </trkpt>
      <trkpt lat="45.33477" lon="6.24159">
        <ele>1442.1149902</ele>
        <time>2009-02-26T07:48:06Z</time>
      </trkpt>
      <trkpt lat="45.33486" lon="6.24112">
        <ele>1448.3632813</ele>
        <time>2009-02-26T07:49:06Z</time>
      </trkpt>
      <trkpt lat="45.33503" lon="6.24073">
        <ele>1457.9768066</ele>
        <time>2009-02-26T07:50:06Z</time>
      </trkpt>
      <trkpt lat="45.33534" lon="6.24049">
        <ele>1467.5895996</ele>
        <time>2009-02-26T07:51:06Z</time>
      </trkpt>
      <trkpt lat="45.33551" lon="6.24001">
        <ele>1478.1643066</ele>
        <time>2009-02-26T07:52:06Z</time>
      </trkpt>
      <trkpt lat="45.33568" lon="6.23968">
        <ele>1488.7390137</ele>
        <time>2009-02-26T07:53:06Z</time>
      </trkpt>
      <trkpt lat="45.33601" lon="6.23952">
        <ele>1499.7939453</ele>
        <time>2009-02-26T07:54:06Z</time>
      </trkpt>
      <trkpt lat="45.33629" lon="6.23922">
        <ele>1507.965332</ele>
        <time>2009-02-26T07:55:06Z</time>
      </trkpt>
      <trkpt lat="45.33667" lon="6.23862">
        <ele>1512.2910156</ele>
        <time>2009-02-26T07:56:06Z</time>
      </trkpt>
      <trkpt lat="45.33678" lon="6.23803">
        <ele>1519.9816895</ele>
        <time>2009-02-26T07:57:06Z</time>
      </trkpt>
      <trkpt lat="45.3369" lon="6.23743">
        <ele>1530.0754395</ele>
        <time>2009-02-26T07:58:06Z</time>
      </trkpt>
      <trkpt lat="45.3371" lon="6.23699">
        <ele>1543.0532227</ele>
        <time>2009-02-26T07:59:06Z</time>
      </trkpt>
      <trkpt lat="45.33729" lon="6.23651">
        <ele>1551.7053223</ele>
        <time>2009-02-26T08:00:06Z</time>
      </trkpt>
      <trkpt lat="45.33734" lon="6.23595">
        <ele>1560.8376465</ele>
        <time>2009-02-26T08:01:06Z</time>
      </trkpt>
      <trkpt lat="45.33743" lon="6.23548">
        <ele>1568.5283203</ele>
        <time>2009-02-26T08:02:06Z</time>
      </trkpt>
      <trkpt lat="45.33757" lon="6.23518">
        <ele>1580.064209</ele>
        <time>2009-02-26T08:03:06Z</time>
      </trkpt>
      <trkpt lat="45.33773" lon="6.23493">
        <ele>1587.7546387</ele>
        <time>2009-02-26T08:04:06Z</time>
      </trkpt>
      <trkpt lat="45.33772" lon="6.23447">
        <ele>1595.4450684</ele>
        <time>2009-02-26T08:05:06Z</time>
      </trkpt>
      <trkpt lat="45.33772" lon="6.2339">
        <ele>1603.1357422</ele>
        <time>2009-02-26T08:06:06Z</time>
      </trkpt>
      <trkpt lat="45.33784" lon="6.23366">
        <ele>1614.6716309</ele>
        <time>2009-02-26T08:07:06Z</time>
      </trkpt>
      <trkpt lat="45.33794" lon="6.23336">
        <ele>1624.284668</ele>
        <time>2009-02-26T08:08:06Z</time>
      </trkpt>
      <trkpt lat="45.33798" lon="6.23336">
        <ele>1624.284668</ele>
        <time>2009-02-26T08:09:06Z</time>
      </trkpt>
      <trkpt lat="45.33796" lon="6.23327">
        <ele>1624.284668</ele>
        <time>2009-02-26T08:10:06Z</time>
      </trkpt>
      <trkpt lat="45.33793" lon="6.23318">
        <ele>1626.6879883</ele>
        <time>2009-02-26T08:11:06Z</time>
      </trkpt>
      <trkpt lat="45.33804" lon="6.23272">
        <ele>1635.3398438</ele>
        <time>2009-02-26T08:12:06Z</time>
      </trkpt>
      <trkpt lat="45.33794" lon="6.23217">
        <ele>1645.9145508</ele>
        <time>2009-02-26T08:13:06Z</time>
      </trkpt>
      <trkpt lat="45.3381" lon="6.23156">
        <ele>1653.1242676</ele>
        <time>2009-02-26T08:14:06Z</time>
      </trkpt>
      <trkpt lat="45.33814" lon="6.23092">
        <ele>1662.2568359</ele>
        <time>2009-02-26T08:15:06Z</time>
      </trkpt>
      <trkpt lat="45.33834" lon="6.23038">
        <ele>1672.3505859</ele>
        <time>2009-02-26T08:16:06Z</time>
      </trkpt>
      <trkpt lat="45.33859" lon="6.2298">
        <ele>1678.5993652</ele>
        <time>2009-02-26T08:17:06Z</time>
      </trkpt>
      <trkpt lat="45.33872" lon="6.22934">
        <ele>1689.173584</ele>
        <time>2009-02-26T08:18:06Z</time>
      </trkpt>
      <trkpt lat="45.33877" lon="6.22876">
        <ele>1696.3837891</ele>
        <time>2009-02-26T08:19:06Z</time>
      </trkpt>
      <trkpt lat="45.339" lon="6.22814">
        <ele>1705.5161133</ele>
        <time>2009-02-26T08:20:06Z</time>
      </trkpt>
      <trkpt lat="45.33902" lon="6.22767">
        <ele>1714.1679688</ele>
        <time>2009-02-26T08:21:06Z</time>
      </trkpt>
      <trkpt lat="45.3393" lon="6.22715">
        <ele>1722.8198242</ele>
        <time>2009-02-26T08:22:06Z</time>
      </trkpt>
      <trkpt lat="45.33939" lon="6.2267">
        <ele>1731.9523926</ele>
        <time>2009-02-26T08:23:06Z</time>
      </trkpt>
      <trkpt lat="45.33952" lon="6.22614">
        <ele>1742.5270996</ele>
        <time>2009-02-26T08:24:06Z</time>
      </trkpt>
      <trkpt lat="45.33956" lon="6.22572">
        <ele>1753.5820313</ele>
        <time>2009-02-26T08:25:06Z</time>
      </trkpt>
      <trkpt lat="45.33975" lon="6.22532">
        <ele>1763.6757813</ele>
        <time>2009-02-26T08:26:06Z</time>
      </trkpt>
      <trkpt lat="45.33987" lon="6.22515">
        <ele>1774.2504883</ele>
        <time>2009-02-26T08:27:06Z</time>
      </trkpt>
      <trkpt lat="45.33998" lon="6.22488">
        <ele>1782.4216309</ele>
        <time>2009-02-26T08:28:06Z</time>
      </trkpt>
      <trkpt lat="45.34007" lon="6.2245">
        <ele>1792.9960938</ele>
        <time>2009-02-26T08:29:06Z</time>
      </trkpt>
      <trkpt lat="45.34021" lon="6.22435">
        <ele>1801.6479492</ele>
        <time>2009-02-26T08:30:06Z</time>
      </trkpt>
      <trkpt lat="45.3403" lon="6.22427">
        <ele>1808.8579102</ele>
        <time>2009-02-26T08:31:06Z</time>
      </trkpt>
      <trkpt lat="45.34038" lon="6.2242">
        <ele>1815.5871582</ele>
        <time>2009-02-26T08:32:06Z</time>
      </trkpt>
      <trkpt lat="45.34049" lon="6.22399">
        <ele>1825.2001953</ele>
        <time>2009-02-26T08:33:06Z</time>
      </trkpt>
      <trkpt lat="45.34053" lon="6.22346">
        <ele>1833.3713379</ele>
        <time>2009-02-26T08:34:06Z</time>
      </trkpt>
      <trkpt lat="45.34047" lon="6.22296">
        <ele>1842.0234375</ele>
        <time>2009-02-26T08:35:06Z</time>
      </trkpt>
      <trkpt lat="45.34072" lon="6.2229">
        <ele>1853.0786133</ele>
        <time>2009-02-26T08:36:06Z</time>
      </trkpt>
      <trkpt lat="45.34069" lon="6.22262">
        <ele>1859.8076172</ele>
        <time>2009-02-26T08:37:06Z</time>
      </trkpt>
      <trkpt lat="45.34079" lon="6.22255">
        <ele>1862.2109375</ele>
        <time>2009-02-26T08:38:06Z</time>
      </trkpt>
      <trkpt lat="45.34092" lon="6.22246">
        <ele>1864.6142578</ele>
        <time>2009-02-26T08:39:06Z</time>
      </trkpt>
      <trkpt lat="45.34094" lon="6.22249">
        <ele>1865.5756836</ele>
        <time>2009-02-26T08:40:06Z</time>
      </trkpt>
      <trkpt lat="45.34094" lon="6.2225">
        <ele>1865.5756836</ele>
        <time>2009-02-26T08:41:06Z</time>
      </trkpt>
      <trkpt lat="45.34094" lon="6.2225">
        <ele>1867.0175781</ele>
        <time>2009-02-26T08:42:06Z</time>
      </trkpt>
      <trkpt lat="45.34094" lon="6.2225">
        <ele>1864.6142578</ele>
        <time>2009-02-26T08:43:06Z</time>
      </trkpt>
      <trkpt lat="45.34091" lon="6.22249">
        <ele>1866.0561523</ele>
        <time>2009-02-26T08:44:06Z</time>
      </trkpt>
      <trkpt lat="45.34084" lon="6.22238">
        <ele>1866.0561523</ele>
        <time>2009-02-26T08:45:06Z</time>
      </trkpt>
      <trkpt lat="45.34106" lon="6.22231">
        <ele>1861.7304688</ele>
        <time>2009-02-26T08:46:06Z</time>
      </trkpt>
      <trkpt lat="45.34092" lon="6.22177">
        <ele>1868.9404297</ele>
        <time>2009-02-26T08:47:06Z</time>
      </trkpt>
      <trkpt lat="45.34104" lon="6.22131">
        <ele>1878.0727539</ele>
        <time>2009-02-26T08:48:06Z</time>
      </trkpt>
      <trkpt lat="45.34096" lon="6.22096">
        <ele>1887.6860352</ele>
        <time>2009-02-26T08:49:06Z</time>
      </trkpt>
      <trkpt lat="45.34103" lon="6.22055">
        <ele>1897.7797852</ele>
        <time>2009-02-26T08:50:06Z</time>
      </trkpt>
      <trkpt lat="45.34092" lon="6.22012">
        <ele>1904.0285645</ele>
        <time>2009-02-26T08:51:06Z</time>
      </trkpt>
      <trkpt lat="45.34074" lon="6.21981">
        <ele>1916.5256348</ele>
        <time>2009-02-26T08:52:06Z</time>
      </trkpt>
      <trkpt lat="45.34061" lon="6.21958">
        <ele>1926.1386719</ele>
        <time>2009-02-26T08:53:06Z</time>
      </trkpt>
      <trkpt lat="45.34029" lon="6.21957">
        <ele>1935.2712402</ele>
        <time>2009-02-26T08:54:06Z</time>
      </trkpt>
      <trkpt lat="45.34029" lon="6.21928">
        <ele>1939.597168</ele>
        <time>2009-02-26T08:55:06Z</time>
      </trkpt>
      <trkpt lat="45.3403" lon="6.21884">
        <ele>1951.6137695</ele>
        <time>2009-02-26T08:56:06Z</time>
      </trkpt>
      <trkpt lat="45.34024" lon="6.21869">
        <ele>1958.8234863</ele>
        <time>2009-02-26T08:57:06Z</time>
      </trkpt>
      <trkpt lat="45.34005" lon="6.21873">
        <ele>1964.5915527</ele>
        <time>2009-02-26T08:58:06Z</time>
      </trkpt>
      <trkpt lat="45.34014" lon="6.21834">
        <ele>1975.1657715</ele>
        <time>2009-02-26T08:59:06Z</time>
      </trkpt>
      <trkpt lat="45.33999" lon="6.21835">
        <ele>1980.934082</ele>
        <time>2009-02-26T09:00:06Z</time>
      </trkpt>
      <trkpt lat="45.33973" lon="6.21842">
        <ele>1991.5083008</ele>
        <time>2009-02-26T09:01:06Z</time>
      </trkpt>
      <trkpt lat="45.33971" lon="6.2185">
        <ele>1992.4697266</ele>
        <time>2009-02-26T09:02:06Z</time>
      </trkpt>
      <trkpt lat="45.33963" lon="6.21844">
        <ele>1995.3535156</ele>
        <time>2009-02-26T09:03:06Z</time>
      </trkpt>
      <trkpt lat="45.33957" lon="6.21811">
        <ele>2005.9279785</ele>
        <time>2009-02-26T09:04:06Z</time>
      </trkpt>
      <trkpt lat="45.33943" lon="6.21818">
        <ele>2013.6186523</ele>
        <time>2009-02-26T09:05:06Z</time>
      </trkpt>
      <trkpt lat="45.33947" lon="6.21787">
        <ele>2020.8286133</ele>
        <time>2009-02-26T09:06:06Z</time>
      </trkpt>
      <trkpt lat="45.33931" lon="6.21794">
        <ele>2030.9226074</ele>
        <time>2009-02-26T09:07:06Z</time>
      </trkpt>
      <trkpt lat="45.3391" lon="6.21779">
        <ele>2037.6516113</ele>
        <time>2009-02-26T09:08:06Z</time>
      </trkpt>
      <trkpt lat="45.33918" lon="6.21761">
        <ele>2044.3808594</ele>
        <time>2009-02-26T09:09:06Z</time>
      </trkpt>
      <trkpt lat="45.33891" lon="6.21763">
        <ele>2050.6293945</ele>
        <time>2009-02-26T09:10:06Z</time>
      </trkpt>
      <trkpt lat="45.33908" lon="6.21731">
        <ele>2057.8393555</ele>
        <time>2009-02-26T09:11:06Z</time>
      </trkpt>
      <trkpt lat="45.33874" lon="6.21735">
        <ele>2066.010498</ele>
        <time>2009-02-26T09:12:06Z</time>
      </trkpt>
      <trkpt lat="45.33878" lon="6.21709">
        <ele>2072.2590332</ele>
        <time>2009-02-26T09:13:06Z</time>
      </trkpt>
      <trkpt lat="45.33852" lon="6.2172">
        <ele>2078.9882813</ele>
        <time>2009-02-26T09:14:06Z</time>
      </trkpt>
      <trkpt lat="45.33863" lon="6.21684">
        <ele>2084.7563477</ele>
        <time>2009-02-26T09:15:06Z</time>
      </trkpt>
      <trkpt lat="45.33845" lon="6.21696">
        <ele>2091.0046387</ele>
        <time>2009-02-26T09:16:06Z</time>
      </trkpt>
      <trkpt lat="45.33828" lon="6.21726">
        <ele>2099.1760254</ele>
        <time>2009-02-26T09:17:06Z</time>
      </trkpt>
      <trkpt lat="45.33808" lon="6.21702">
        <ele>2106.3857422</ele>
        <time>2009-02-26T09:18:06Z</time>
      </trkpt>
      <trkpt lat="45.33809" lon="6.21662">
        <ele>2115.0378418</ele>
        <time>2009-02-26T09:19:06Z</time>
      </trkpt>
      <trkpt lat="45.33801" lon="6.21624">
        <ele>2123.2089844</ele>
        <time>2009-02-26T09:20:06Z</time>
      </trkpt>
      <trkpt lat="45.33797" lon="6.21616">
        <ele>2129.9382324</ele>
        <time>2009-02-26T09:21:06Z</time>
      </trkpt>
      <trkpt lat="45.33778" lon="6.21623">
        <ele>2136.1867676</ele>
        <time>2009-02-26T09:22:06Z</time>
      </trkpt>
      <trkpt lat="45.33759" lon="6.21624">
        <ele>2142.9160156</ele>
        <time>2009-02-26T09:23:06Z</time>
      </trkpt>
      <trkpt lat="45.33751" lon="6.21581">
        <ele>2151.0871582</ele>
        <time>2009-02-26T09:24:06Z</time>
      </trkpt>
      <trkpt lat="45.33761" lon="6.21568">
        <ele>2158.777832</ele>
        <time>2009-02-26T09:25:06Z</time>
      </trkpt>
      <trkpt lat="45.33741" lon="6.21577">
        <ele>2166.9489746</ele>
        <time>2009-02-26T09:26:06Z</time>
      </trkpt>
      <trkpt lat="45.33726" lon="6.21589">
        <ele>2173.1977539</ele>
        <time>2009-02-26T09:27:06Z</time>
      </trkpt>
      <trkpt lat="45.33713" lon="6.21561">
        <ele>2180.8881836</ele>
        <time>2009-02-26T09:28:06Z</time>
      </trkpt>
      <trkpt lat="45.33719" lon="6.21528">
        <ele>2188.0981445</ele>
        <time>2009-02-26T09:29:06Z</time>
      </trkpt>
      <trkpt lat="45.33695" lon="6.21522">
        <ele>2194.3464355</ele>
        <time>2009-02-26T09:30:06Z</time>
      </trkpt>
      <trkpt lat="45.337" lon="6.21488">
        <ele>2204.9211426</ele>
        <time>2009-02-26T09:31:06Z</time>
      </trkpt>
      <trkpt lat="45.33678" lon="6.21459">
        <ele>2213.5727539</ele>
        <time>2009-02-26T09:32:06Z</time>
      </trkpt>
      <trkpt lat="45.33661" lon="6.21441">
        <ele>2219.3408203</ele>
        <time>2009-02-26T09:33:06Z</time>
      </trkpt>
      <trkpt lat="45.33657" lon="6.21414">
        <ele>2228.4733887</ele>
        <time>2009-02-26T09:34:06Z</time>
      </trkpt>
      <trkpt lat="45.33638" lon="6.21412">
        <ele>2233.760498</ele>
        <time>2009-02-26T09:35:06Z</time>
      </trkpt>
      <trkpt lat="45.33655" lon="6.21382">
        <ele>2243.3737793</ele>
        <time>2009-02-26T09:36:06Z</time>
      </trkpt>
      <trkpt lat="45.33638" lon="6.21377">
        <ele>2248.6608887</ele>
        <time>2009-02-26T09:37:06Z</time>
      </trkpt>
      <trkpt lat="45.33634" lon="6.2136">
        <ele>2253.9484863</ele>
        <time>2009-02-26T09:38:06Z</time>
      </trkpt>
      <trkpt lat="45.33631" lon="6.21325">
        <ele>2265.9645996</ele>
        <time>2009-02-26T09:39:06Z</time>
      </trkpt>
      <trkpt lat="45.33623" lon="6.2128">
        <ele>2273.6552734</ele>
        <time>2009-02-26T09:40:06Z</time>
      </trkpt>
      <trkpt lat="45.33604" lon="6.21295">
        <ele>2282.7875977</ele>
        <time>2009-02-26T09:41:06Z</time>
      </trkpt>
      <trkpt lat="45.33586" lon="6.21318">
        <ele>2289.9978027</ele>
        <time>2009-02-26T09:42:06Z</time>
      </trkpt>
      <trkpt lat="45.33582" lon="6.21288">
        <ele>2293.3623047</ele>
        <time>2009-02-26T09:43:06Z</time>
      </trkpt>
      <trkpt lat="45.33586" lon="6.21238">
        <ele>2296.7268066</ele>
        <time>2009-02-26T09:44:06Z</time>
      </trkpt>
      <trkpt lat="45.33586" lon="6.21189">
        <ele>2301.5336914</ele>
        <time>2009-02-26T09:45:06Z</time>
      </trkpt>
      <trkpt lat="45.33594" lon="6.21151">
        <ele>2308.2626953</ele>
        <time>2009-02-26T09:46:06Z</time>
      </trkpt>
      <trkpt lat="45.33595" lon="6.21127">
        <ele>2314.9919434</ele>
        <time>2009-02-26T09:47:06Z</time>
      </trkpt>
      <trkpt lat="45.33581" lon="6.21106">
        <ele>2323.1633301</ele>
        <time>2009-02-26T09:48:06Z</time>
      </trkpt>
      <trkpt lat="45.33573" lon="6.21081">
        <ele>2331.3342285</ele>
        <time>2009-02-26T09:49:06Z</time>
      </trkpt>
      <trkpt lat="45.33559" lon="6.21063">
        <ele>2340.9475098</ele>
        <time>2009-02-26T09:50:06Z</time>
      </trkpt>
      <trkpt lat="45.3354" lon="6.21051">
        <ele>2347.6767578</ele>
        <time>2009-02-26T09:51:06Z</time>
      </trkpt>
      <trkpt lat="45.33549" lon="6.21026">
        <ele>2354.4060059</ele>
        <time>2009-02-26T09:52:06Z</time>
      </trkpt>
      <trkpt lat="45.33536" lon="6.21012">
        <ele>2362.5771484</ele>
        <time>2009-02-26T09:53:06Z</time>
      </trkpt>
      <trkpt lat="45.33531" lon="6.2099">
        <ele>2370.7485352</ele>
        <time>2009-02-26T09:54:06Z</time>
      </trkpt>
      <trkpt lat="45.33504" lon="6.20984">
        <ele>2379.8808594</ele>
        <time>2009-02-26T09:55:06Z</time>
      </trkpt>
      <trkpt lat="45.33494" lon="6.20987">
        <ele>2380.8425293</ele>
        <time>2009-02-26T09:56:06Z</time>
      </trkpt>
      <trkpt lat="45.33502" lon="6.20964">
        <ele>2385.6489258</ele>
        <time>2009-02-26T09:57:06Z</time>
      </trkpt>
      <trkpt lat="45.33486" lon="6.2096">
        <ele>2391.8974609</ele>
        <time>2009-02-26T09:58:06Z</time>
      </trkpt>
      <trkpt lat="45.33489" lon="6.20955">
        <ele>2395.7426758</ele>
        <time>2009-02-26T09:59:06Z</time>
      </trkpt>
      <trkpt lat="45.33476" lon="6.20943">
        <ele>2403.9140625</ele>
        <time>2009-02-26T10:00:06Z</time>
      </trkpt>
      <trkpt lat="45.3346" lon="6.20941">
        <ele>2412.0852051</ele>
        <time>2009-02-26T10:01:06Z</time>
      </trkpt>
      <trkpt lat="45.33468" lon="6.20923">
        <ele>2413.0466309</ele>
        <time>2009-02-26T10:02:06Z</time>
      </trkpt>
      <trkpt lat="45.33469" lon="6.20925">
        <ele>2411.6044922</ele>
        <time>2009-02-26T10:03:06Z</time>
      </trkpt>
      <trkpt lat="45.33465" lon="6.20921">
        <ele>2414.4885254</ele>
        <time>2009-02-26T10:04:06Z</time>
      </trkpt>
      <trkpt lat="45.33469" lon="6.20921">
        <ele>2411.6044922</ele>
        <time>2009-02-26T10:05:06Z</time>
      </trkpt>
      <trkpt lat="45.33468" lon="6.2092">
        <ele>2414.4885254</ele>
        <time>2009-02-26T10:06:06Z</time>
      </trkpt>
      <trkpt lat="45.33467" lon="6.2092">
        <ele>2414.4885254</ele>
        <time>2009-02-26T10:07:06Z</time>
      </trkpt>
      <trkpt lat="45.33467" lon="6.20921">
        <ele>2411.6044922</ele>
        <time>2009-02-26T10:08:06Z</time>
      </trkpt>
      <trkpt lat="45.33467" lon="6.20921">
        <ele>2412.565918</ele>
        <time>2009-02-26T10:09:06Z</time>
      </trkpt>
      <trkpt lat="45.33467" lon="6.2092">
        <ele>2412.565918</ele>
        <time>2009-02-26T10:10:06Z</time>
      </trkpt>
      <trkpt lat="45.33467" lon="6.20921">
        <ele>2412.565918</ele>
        <time>2009-02-26T10:11:06Z</time>
      </trkpt>
      <trkpt lat="45.33471" lon="6.20921">
        <ele>2413.0466309</ele>
        <time>2009-02-26T10:12:06Z</time>
      </trkpt>
      <trkpt lat="45.33527" lon="6.20998">
        <ele>2369.3066406</ele>
        <time>2009-02-26T10:13:06Z</time>
      </trkpt>
      <trkpt lat="45.33545" lon="6.21097">
        <ele>2339.5056152</ele>
        <time>2009-02-26T10:14:06Z</time>
      </trkpt>
      <trkpt lat="45.33571" lon="6.21164">
        <ele>2314.5112305</ele>
        <time>2009-02-26T10:15:06Z</time>
      </trkpt>
      <trkpt lat="45.33625" lon="6.21407">
        <ele>2235.2023926</ele>
        <time>2009-02-26T10:16:06Z</time>
      </trkpt>
      <trkpt lat="45.33747" lon="6.21501">
        <ele>2183.2912598</ele>
        <time>2009-02-26T10:17:06Z</time>
      </trkpt>
      <trkpt lat="45.33829" lon="6.21448">
        <ele>2171.7553711</ele>
        <time>2009-02-26T10:18:06Z</time>
      </trkpt>
      <trkpt lat="45.33858" lon="6.21451">
        <ele>2178.0041504</ele>
        <time>2009-02-26T10:19:06Z</time>
      </trkpt>
      <trkpt lat="45.3386" lon="6.21418">
        <ele>2185.6945801</ele>
        <time>2009-02-26T10:20:06Z</time>
      </trkpt>
      <trkpt lat="45.33871" lon="6.21379">
        <ele>2190.020752</ele>
        <time>2009-02-26T10:21:06Z</time>
      </trkpt>
      <trkpt lat="45.33885" lon="6.21354">
        <ele>2191.4626465</ele>
        <time>2009-02-26T10:22:06Z</time>
      </trkpt>
      <trkpt lat="45.33912" lon="6.21302">
        <ele>2190.9819336</ele>
        <time>2009-02-26T10:23:06Z</time>
      </trkpt>
      <trkpt lat="45.33997" lon="6.21305">
        <ele>2162.142334</ele>
        <time>2009-02-26T10:24:06Z</time>
      </trkpt>
      <trkpt lat="45.34095" lon="6.2129">
        <ele>2098.6953125</ele>
        <time>2009-02-26T10:25:06Z</time>
      </trkpt>
      <trkpt lat="45.34096" lon="6.21272">
        <ele>2099.1760254</ele>
        <time>2009-02-26T10:26:06Z</time>
      </trkpt>
      <trkpt lat="45.34095" lon="6.21272">
        <ele>2099.1760254</ele>
        <time>2009-02-26T10:27:06Z</time>
      </trkpt>
      <trkpt lat="45.34176" lon="6.21273">
        <ele>2037.1708984</ele>
        <time>2009-02-26T10:28:06Z</time>
      </trkpt>
      <trkpt lat="45.34218" lon="6.21172">
        <ele>2026.1157227</ele>
        <time>2009-02-26T10:29:06Z</time>
      </trkpt>
      <trkpt lat="45.34219" lon="6.21172">
        <ele>2025.1542969</ele>
        <time>2009-02-26T10:30:06Z</time>
      </trkpt>
      <trkpt lat="45.34218" lon="6.21172">
        <ele>2024.6738281</ele>
        <time>2009-02-26T10:31:06Z</time>
      </trkpt>
      <trkpt lat="45.34218" lon="6.21171">
        <ele>2024.1931152</ele>
        <time>2009-02-26T10:32:06Z</time>
      </trkpt>
      <trkpt lat="45.34217" lon="6.21171">
        <ele>2024.6738281</ele>
        <time>2009-02-26T10:33:06Z</time>
      </trkpt>
      <trkpt lat="45.34216" lon="6.21173">
        <ele>2024.6738281</ele>
        <time>2009-02-26T10:34:06Z</time>
      </trkpt>
      <trkpt lat="45.34213" lon="6.21175">
        <ele>2024.6738281</ele>
        <time>2009-02-26T10:35:06Z</time>
      </trkpt>
      <trkpt lat="45.34216" lon="6.21164">
        <ele>2023.2319336</ele>
        <time>2009-02-26T10:36:06Z</time>
      </trkpt>
      <trkpt lat="45.34216" lon="6.21167">
        <ele>2024.6738281</ele>
        <time>2009-02-26T10:37:06Z</time>
      </trkpt>
      <trkpt lat="45.34219" lon="6.21175">
        <ele>2023.7124023</ele>
        <time>2009-02-26T10:38:06Z</time>
      </trkpt>
      <trkpt lat="45.3422" lon="6.21171">
        <ele>2023.7124023</ele>
        <time>2009-02-26T10:39:06Z</time>
      </trkpt>
      <trkpt lat="45.34219" lon="6.21169">
        <ele>2026.5964355</ele>
        <time>2009-02-26T10:40:06Z</time>
      </trkpt>
      <trkpt lat="45.34221" lon="6.21124">
        <ele>2034.2871094</ele>
        <time>2009-02-26T10:41:06Z</time>
      </trkpt>
      <trkpt lat="45.34218" lon="6.21106">
        <ele>2036.6901855</ele>
        <time>2009-02-26T10:42:06Z</time>
      </trkpt>
      <trkpt lat="45.34219" lon="6.21111">
        <ele>2037.6516113</ele>
        <time>2009-02-26T10:43:06Z</time>
      </trkpt>
      <trkpt lat="45.34192" lon="6.21139">
        <ele>2036.2097168</ele>
        <time>2009-02-26T10:44:06Z</time>
      </trkpt>
      <trkpt lat="45.34171" lon="6.21185">
        <ele>2041.9775391</ele>
        <time>2009-02-26T10:45:06Z</time>
      </trkpt>
      <trkpt lat="45.34147" lon="6.21183">
        <ele>2049.1875</ele>
        <time>2009-02-26T10:46:06Z</time>
      </trkpt>
      <trkpt lat="45.34141" lon="6.21171">
        <ele>2053.0327148</ele>
        <time>2009-02-26T10:47:06Z</time>
      </trkpt>
      <trkpt lat="45.34125" lon="6.21141">
        <ele>2060.7233887</ele>
        <time>2009-02-26T10:48:06Z</time>
      </trkpt>
      <trkpt lat="45.34111" lon="6.21152">
        <ele>2065.5300293</ele>
        <time>2009-02-26T10:49:06Z</time>
      </trkpt>
      <trkpt lat="45.34111" lon="6.2115">
        <ele>2067.4523926</ele>
        <time>2009-02-26T10:50:06Z</time>
      </trkpt>
      <trkpt lat="45.34098" lon="6.21112">
        <ele>2076.1044922</ele>
        <time>2009-02-26T10:51:06Z</time>
      </trkpt>
      <trkpt lat="45.34085" lon="6.21092">
        <ele>2084.2756348</ele>
        <time>2009-02-26T10:52:06Z</time>
      </trkpt>
      <trkpt lat="45.34078" lon="6.2104">
        <ele>2091.4853516</ele>
        <time>2009-02-26T10:53:06Z</time>
      </trkpt>
      <trkpt lat="45.34065" lon="6.21008">
        <ele>2098.2145996</ele>
        <time>2009-02-26T10:54:06Z</time>
      </trkpt>
      <trkpt lat="45.34053" lon="6.20969">
        <ele>2106.8664551</ele>
        <time>2009-02-26T10:55:06Z</time>
      </trkpt>
      <trkpt lat="45.34039" lon="6.20928">
        <ele>2111.192627</ele>
        <time>2009-02-26T10:56:06Z</time>
      </trkpt>
      <trkpt lat="45.34027" lon="6.20897">
        <ele>2117.9216309</ele>
        <time>2009-02-26T10:57:06Z</time>
      </trkpt>
      <trkpt lat="45.34019" lon="6.20859">
        <ele>2127.5349121</ele>
        <time>2009-02-26T10:58:06Z</time>
      </trkpt>
      <trkpt lat="45.34027" lon="6.20818">
        <ele>2134.2641602</ele>
        <time>2009-02-26T10:59:06Z</time>
      </trkpt>
      <trkpt lat="45.34019" lon="6.2078">
        <ele>2143.3967285</ele>
        <time>2009-02-26T11:00:06Z</time>
      </trkpt>
      <trkpt lat="45.34004" lon="6.2073">
        <ele>2149.6452637</ele>
        <time>2009-02-26T11:01:06Z</time>
      </trkpt>
      <trkpt lat="45.33986" lon="6.20704">
        <ele>2157.3359375</ele>
        <time>2009-02-26T11:02:06Z</time>
      </trkpt>
      <trkpt lat="45.33981" lon="6.20692">
        <ele>2164.5456543</ele>
        <time>2009-02-26T11:03:06Z</time>
      </trkpt>
      <trkpt lat="45.3398" lon="6.20655">
        <ele>2174.1589355</ele>
        <time>2009-02-26T11:04:06Z</time>
      </trkpt>
      <trkpt lat="45.33978" lon="6.20609">
        <ele>2179.4460449</ele>
        <time>2009-02-26T11:05:06Z</time>
      </trkpt>
      <trkpt lat="45.33969" lon="6.20559">
        <ele>2186.6557617</ele>
        <time>2009-02-26T11:06:06Z</time>
      </trkpt>
      <trkpt lat="45.33951" lon="6.20519">
        <ele>2195.7885742</ele>
        <time>2009-02-26T11:07:06Z</time>
      </trkpt>
      <trkpt lat="45.3395" lon="6.20512">
        <ele>2196.7497559</ele>
        <time>2009-02-26T11:08:06Z</time>
      </trkpt>
      <trkpt lat="45.33949" lon="6.20513">
        <ele>2196.7497559</ele>
        <time>2009-02-26T11:09:06Z</time>
      </trkpt>
      <trkpt lat="45.33948" lon="6.20511">
        <ele>2196.2692871</ele>
        <time>2009-02-26T11:10:06Z</time>
      </trkpt>
      <trkpt lat="45.33929" lon="6.20476">
        <ele>2204.9211426</ele>
        <time>2009-02-26T11:11:06Z</time>
      </trkpt>
      <trkpt lat="45.33913" lon="6.20447">
        <ele>2210.6889648</ele>
        <time>2009-02-26T11:12:06Z</time>
      </trkpt>
      <trkpt lat="45.33899" lon="6.20476">
        <ele>2222.2248535</ele>
        <time>2009-02-26T11:13:06Z</time>
      </trkpt>
      <trkpt lat="45.33881" lon="6.20501">
        <ele>2226.0700684</ele>
        <time>2009-02-26T11:14:06Z</time>
      </trkpt>
      <trkpt lat="45.33873" lon="6.20499">
        <ele>2232.3186035</ele>
        <time>2009-02-26T11:15:06Z</time>
      </trkpt>
      <trkpt lat="45.33874" lon="6.20478">
        <ele>2238.0866699</ele>
        <time>2009-02-26T11:16:06Z</time>
      </trkpt>
      <trkpt lat="45.33859" lon="6.20489">
        <ele>2242.8930664</ele>
        <time>2009-02-26T11:17:06Z</time>
      </trkpt>
      <trkpt lat="45.33861" lon="6.20455">
        <ele>2253.4677734</ele>
        <time>2009-02-26T11:18:06Z</time>
      </trkpt>
      <trkpt lat="45.33861" lon="6.20454">
        <ele>2253.4677734</ele>
        <time>2009-02-26T11:19:06Z</time>
      </trkpt>
      <trkpt lat="45.3384" lon="6.20445">
        <ele>2259.2355957</ele>
        <time>2009-02-26T11:20:06Z</time>
      </trkpt>
      <trkpt lat="45.33842" lon="6.20408">
        <ele>2266.9260254</ele>
        <time>2009-02-26T11:21:06Z</time>
      </trkpt>
      <trkpt lat="45.33823" lon="6.20383">
        <ele>2277.9812012</ele>
        <time>2009-02-26T11:22:06Z</time>
      </trkpt>
      <trkpt lat="45.33799" lon="6.20374">
        <ele>2284.2299805</ele>
        <time>2009-02-26T11:23:06Z</time>
      </trkpt>
      <trkpt lat="45.33782" lon="6.2036">
        <ele>2290.4782715</ele>
        <time>2009-02-26T11:24:06Z</time>
      </trkpt>
      <trkpt lat="45.33757" lon="6.20332">
        <ele>2298.1687012</ele>
        <time>2009-02-26T11:25:06Z</time>
      </trkpt>
      <trkpt lat="45.3374" lon="6.20305">
        <ele>2307.3015137</ele>
        <time>2009-02-26T11:26:06Z</time>
      </trkpt>
      <trkpt lat="45.33728" lon="6.20272">
        <ele>2313.5498047</ele>
        <time>2009-02-26T11:27:06Z</time>
      </trkpt>
      <trkpt lat="45.33727" lon="6.20234">
        <ele>2321.2404785</ele>
        <time>2009-02-26T11:28:06Z</time>
      </trkpt>
      <trkpt lat="45.33717" lon="6.20221">
        <ele>2327.4890137</ele>
        <time>2009-02-26T11:29:06Z</time>
      </trkpt>
      <trkpt lat="45.33698" lon="6.20223">
        <ele>2331.3342285</ele>
        <time>2009-02-26T11:30:06Z</time>
      </trkpt>
      <trkpt lat="45.33692" lon="6.2019">
        <ele>2341.9089355</ele>
        <time>2009-02-26T11:31:06Z</time>
      </trkpt>
      <trkpt lat="45.33675" lon="6.20191">
        <ele>2348.6381836</ele>
        <time>2009-02-26T11:32:06Z</time>
      </trkpt>
      <trkpt lat="45.33662" lon="6.2019">
        <ele>2353.4448242</ele>
        <time>2009-02-26T11:33:06Z</time>
      </trkpt>
      <trkpt lat="45.33667" lon="6.20161">
        <ele>2361.6159668</ele>
        <time>2009-02-26T11:34:06Z</time>
      </trkpt>
      <trkpt lat="45.33631" lon="6.20178">
        <ele>2369.3066406</ele>
        <time>2009-02-26T11:35:06Z</time>
      </trkpt>
      <trkpt lat="45.33639" lon="6.20152">
        <ele>2374.1130371</ele>
        <time>2009-02-26T11:36:06Z</time>
      </trkpt>
      <trkpt lat="45.33652" lon="6.2012">
        <ele>2379.8808594</ele>
        <time>2009-02-26T11:37:06Z</time>
      </trkpt>
      <trkpt lat="45.33652" lon="6.20109">
        <ele>2386.6101074</ele>
        <time>2009-02-26T11:38:06Z</time>
      </trkpt>
      <trkpt lat="45.33654" lon="6.2009">
        <ele>2393.8200684</ele>
        <time>2009-02-26T11:39:06Z</time>
      </trkpt>
      <trkpt lat="45.33654" lon="6.20089">
        <ele>2393.8200684</ele>
        <time>2009-02-26T11:40:06Z</time>
      </trkpt>
      <trkpt lat="45.33654" lon="6.20089">
        <ele>2394.78125</ele>
        <time>2009-02-26T11:41:06Z</time>
      </trkpt>
      <trkpt lat="45.33654" lon="6.20089">
        <ele>2394.3005371</ele>
        <time>2009-02-26T11:42:06Z</time>
      </trkpt>
      <trkpt lat="45.33654" lon="6.20089">
        <ele>2397.1848145</ele>
        <time>2009-02-26T11:43:06Z</time>
      </trkpt>
      <trkpt lat="45.33654" lon="6.20089">
        <ele>2395.2619629</ele>
        <time>2009-02-26T11:44:06Z</time>
      </trkpt>
      <trkpt lat="45.33654" lon="6.20089">
        <ele>2398.1459961</ele>
        <time>2009-02-26T11:45:06Z</time>
      </trkpt>
      <trkpt lat="45.33654" lon="6.20089">
        <ele>2397.1848145</ele>
        <time>2009-02-26T11:46:06Z</time>
      </trkpt>
      <trkpt lat="45.33654" lon="6.20089">
        <ele>2396.2236328</ele>
        <time>2009-02-26T11:47:06Z</time>
      </trkpt>
      <trkpt lat="45.33654" lon="6.20089">
        <ele>2394.78125</ele>
        <time>2009-02-26T11:48:06Z</time>
      </trkpt>
      <trkpt lat="45.33654" lon="6.20089">
        <ele>2394.78125</ele>
        <time>2009-02-26T11:49:06Z</time>
      </trkpt>
      <trkpt lat="45.33652" lon="6.20089">
        <ele>2392.8586426</ele>
        <time>2009-02-26T11:50:06Z</time>
      </trkpt>
      <trkpt lat="45.33611" lon="6.20043">
        <ele>2361.1352539</ele>
        <time>2009-02-26T11:51:06Z</time>
      </trkpt>
      <trkpt lat="45.3348" lon="6.20011">
        <ele>2324.1245117</ele>
        <time>2009-02-26T11:52:06Z</time>
      </trkpt>
      <trkpt lat="45.33428" lon="6.19889">
        <ele>2272.2133789</ele>
        <time>2009-02-26T11:53:06Z</time>
      </trkpt>
      <trkpt lat="45.33346" lon="6.19779">
        <ele>2215.9760742</ele>
        <time>2009-02-26T11:54:06Z</time>
      </trkpt>
      <trkpt lat="45.33307" lon="6.19701">
        <ele>2189.5400391</ele>
        <time>2009-02-26T11:55:06Z</time>
      </trkpt>
      <trkpt lat="45.33209" lon="6.19632">
        <ele>2162.142334</ele>
        <time>2009-02-26T11:56:06Z</time>
      </trkpt>
      <trkpt lat="45.33243" lon="6.19461">
        <ele>2146.2807617</ele>
        <time>2009-02-26T11:57:06Z</time>
      </trkpt>
      <trkpt lat="45.3308" lon="6.19423">
        <ele>2084.7563477</ele>
        <time>2009-02-26T11:58:06Z</time>
      </trkpt>
      <trkpt lat="45.33" lon="6.19614">
        <ele>2034.2871094</ele>
        <time>2009-02-26T11:59:06Z</time>
      </trkpt>
      <trkpt lat="45.32852" lon="6.20161">
        <ele>1966.0334473</ele>
        <time>2009-02-26T12:00:06Z</time>
      </trkpt>
      <trkpt lat="45.32829" lon="6.20417">
        <ele>1942.9616699</ele>
        <time>2009-02-26T12:01:06Z</time>
      </trkpt>
      <trkpt lat="45.32787" lon="6.20721">
        <ele>1903.5478516</ele>
        <time>2009-02-26T12:02:06Z</time>
      </trkpt>
      <trkpt lat="45.32732" lon="6.21011">
        <ele>1875.6694336</ele>
        <time>2009-02-26T12:03:06Z</time>
      </trkpt>
      <trkpt lat="45.32704" lon="6.21104">
        <ele>1866.0561523</ele>
        <time>2009-02-26T12:04:06Z</time>
      </trkpt>
      <trkpt lat="45.32624" lon="6.2147">
        <ele>1808.3771973</ele>
        <time>2009-02-26T12:05:06Z</time>
      </trkpt>
      <trkpt lat="45.32579" lon="6.21749">
        <ele>1777.6149902</ele>
        <time>2009-02-26T12:06:06Z</time>
      </trkpt>
      <trkpt lat="45.32516" lon="6.22033">
        <ele>1748.7753906</ele>
        <time>2009-02-26T12:07:06Z</time>
      </trkpt>
      <trkpt lat="45.32489" lon="6.22082">
        <ele>1746.8527832</ele>
        <time>2009-02-26T12:08:06Z</time>
      </trkpt>
      <trkpt lat="45.32433" lon="6.22378">
        <ele>1703.112793</ele>
        <time>2009-02-26T12:09:06Z</time>
      </trkpt>
      <trkpt lat="45.3247" lon="6.22521">
        <ele>1660.8149414</ele>
        <time>2009-02-26T12:10:06Z</time>
      </trkpt>
      <trkpt lat="45.32382" lon="6.22944">
        <ele>1602.6550293</ele>
        <time>2009-02-26T12:11:06Z</time>
      </trkpt>
      <trkpt lat="45.32451" lon="6.22901">
        <ele>1560.3569336</ele>
        <time>2009-02-26T12:12:06Z</time>
      </trkpt>
      <trkpt lat="45.32541" lon="6.23165">
        <ele>1519.5012207</ele>
        <time>2009-02-26T12:13:06Z</time>
      </trkpt>
      <trkpt lat="45.32543" lon="6.23411">
        <ele>1473.3579102</ele>
        <time>2009-02-26T12:14:06Z</time>
      </trkpt>
      <trkpt lat="45.32521" lon="6.23504">
        <ele>1445.9602051</ele>
        <time>2009-02-26T12:15:06Z</time>
      </trkpt>
      <trkpt lat="45.32478" lon="6.2366">
        <ele>1411.3527832</ele>
        <time>2009-02-26T12:16:06Z</time>
      </trkpt>
      <trkpt lat="45.32392" lon="6.2372">
        <ele>1373.3808594</ele>
        <time>2009-02-26T12:17:06Z</time>
      </trkpt>
      <trkpt lat="45.32316" lon="6.23824">
        <ele>1343.579834</ele>
        <time>2009-02-26T12:18:06Z</time>
      </trkpt>
      <trkpt lat="45.32199" lon="6.23912">
        <ele>1307.5302734</ele>
        <time>2009-02-26T12:19:06Z</time>
      </trkpt>
      <trkpt lat="45.32201" lon="6.2392">
        <ele>1308.4916992</ele>
        <time>2009-02-26T12:20:06Z</time>
      </trkpt>
      <trkpt lat="45.32147" lon="6.2397">
        <ele>1284.4587402</ele>
        <time>2009-02-26T12:21:06Z</time>
      </trkpt>
      <trkpt lat="45.32031" lon="6.24145">
        <ele>1240.7185059</ele>
        <time>2009-02-26T12:22:06Z</time>
      </trkpt>
      <trkpt lat="45.31898" lon="6.24387">
        <ele>1192.1721191</ele>
        <time>2009-02-26T12:23:06Z</time>
      </trkpt>
      <trkpt lat="45.31798" lon="6.24565">
        <ele>1149.3935547</ele>
        <time>2009-02-26T12:24:06Z</time>
      </trkpt>
      <trkpt lat="45.31681" lon="6.24856">
        <ele>1094.5981445</ele>
        <time>2009-02-26T12:25:06Z</time>
      </trkpt>
      <trkpt lat="45.31616" lon="6.2508">
        <ele>1057.5876465</ele>
        <time>2009-02-26T12:26:06Z</time>
      </trkpt>
      <trkpt lat="45.31618" lon="6.25085">
        <ele>1056.1455078</ele>
        <time>2009-02-26T12:27:06Z</time>
      </trkpt>
      <trkpt lat="45.31621" lon="6.25091">
        <ele>1056.6262207</ele>
        <time>2009-02-26T12:28:06Z</time>
      </trkpt>
      <trkpt lat="45.31624" lon="6.25095">
        <ele>1056.1455078</ele>
        <time>2009-02-26T12:29:06Z</time>
      </trkpt>
      <trkpt lat="45.31623" lon="6.25096">
        <ele>1058.5488281</ele>
        <time>2009-02-26T12:30:06Z</time>
      </trkpt>
      <trkpt lat="45.31626" lon="6.25104">
        <ele>1058.0683594</ele>
        <time>2009-02-26T12:31:06Z</time>
      </trkpt>
      <trkpt lat="45.31618" lon="6.25172">
        <ele>1055.1843262</ele>
        <time>2009-02-26T12:32:06Z</time>
      </trkpt>
      <trkpt lat="45.31598" lon="6.25275">
        <ele>1049.8969727</ele>
        <time>2009-02-26T12:33:06Z</time>
      </trkpt>
      <trkpt lat="45.31575" lon="6.25373">
        <ele>1045.5710449</ele>
        <time>2009-02-26T12:34:06Z</time>
      </trkpt>
      <trkpt lat="45.31566" lon="6.25484">
        <ele>1040.2839355</ele>
        <time>2009-02-26T12:35:06Z</time>
      </trkpt>
      <trkpt lat="45.31548" lon="6.25594">
        <ele>1036.4387207</ele>
        <time>2009-02-26T12:36:06Z</time>
      </trkpt>
      <trkpt lat="45.31519" lon="6.25648">
        <ele>1030.1899414</ele>
        <time>2009-02-26T12:37:06Z</time>
      </trkpt>
      <trkpt lat="45.31519" lon="6.25646">
        <ele>1029.2285156</ele>
        <time>2009-02-26T12:38:06Z</time>
      </trkpt>
      <trkpt lat="45.31521" lon="6.25645">
        <ele>1031.6318359</ele>
        <time>2009-02-26T12:39:06Z</time>
      </trkpt>
      <trkpt lat="45.31521" lon="6.25646">
        <ele>1032.1125488</ele>
        <time>2009-02-26T12:40:06Z</time>
      </trkpt>
      <trkpt lat="45.31521" lon="6.25646">
        <ele>1031.1513672</ele>
        <time>2009-02-26T12:41:06Z</time>
      </trkpt>
      <trkpt lat="45.31522" lon="6.25647">
        <ele>1031.1513672</ele>
        <time>2009-02-26T12:42:06Z</time>
      </trkpt>
    </trkseg>
  </trk>
</gpx>